sensor_id;sensor_type;location;lat;lon;timestamp;P1;durP1;ratioP1;P2;durP2;ratioP2
7503;SDS011;3793;48.136;11.536;2023-03-01T00:02:09;17.87;;;14.03;;
7503;SDS011;3793;48.136;11.536;2023-03-01T00:04:36;21.10;;;13.67;;
7503;SDS011;3793;48.136;11.536;2023-03-01T00:07:02;21.80;;;14.53;;
7503;SDS011;3793;48.136;11.536;2023-03-01T00:09:29;19.97;;;13.93;;
7503;SDS011;3793;48.136;11.536;2023-03-01T00:11:55;20.83;;;13.97;;
7503;SDS011;3793;48.136;11.536;2023-03-01T00:14:23;21.23;;;14.60;;
7503;SDS011;3793;48.136;11.536;2023-03-01T00:16:50;17.17;;;13.23;;
7503;SDS011;3793;48.136;11.536;2023-03-01T00:19:17;19.20;;;14.43;;
7503;SDS011;3793;48.136;11.536;2023-03-01T00:21:44;21.53;;;14.97;;
7503;SDS011;3793;48.136;11.536;2023-03-01T00:24:10;20.83;;;14.17;;
7503;SDS011;3793;48.136;11.536;2023-03-01T00:26:37;20.00;;;13.20;;
7503;SDS011;3793;48.136;11.536;2023-03-01T00:29:03;21.13;;;14.20;;
7503;SDS011;3793;48.136;11.536;2023-03-01T00:31:32;21.17;;;14.77;;
7503;SDS011;3793;48.136;11.536;2023-03-01T00:33:59;23.43;;;14.70;;
7503;SDS011;3793;48.136;11.536;2023-03-01T00:36:27;22.30;;;14.03;;
7503;SDS011;3793;48.136;11.536;2023-03-01T00:38:54;23.40;;;14.93;;
7503;SDS011;3793;48.136;11.536;2023-03-01T00:41:21;20.97;;;14.13;;
7503;SDS011;3793;48.136;11.536;2023-03-01T00:43:48;19.57;;;14.40;;
7503;SDS011;3793;48.136;11.536;2023-03-01T00:46:16;23.27;;;14.27;;
7503;SDS011;3793;48.136;11.536;2023-03-01T00:48:45;22.47;;;14.70;;
7503;SDS011;3793;48.136;11.536;2023-03-01T00:51:12;20.93;;;14.57;;
7503;SDS011;3793;48.136;11.536;2023-03-01T00:53:39;19.87;;;13.37;;
7503;SDS011;3793;48.136;11.536;2023-03-01T00:56:06;21.03;;;14.10;;
7503;SDS011;3793;48.136;11.536;2023-03-01T00:58:33;22.90;;;15.47;;
7503;SDS011;3793;48.136;11.536;2023-03-01T01:01:00;23.03;;;15.00;;
7503;SDS011;3793;48.136;11.536;2023-03-01T01:03:27;24.03;;;14.13;;
7503;SDS011;3793;48.136;11.536;2023-03-01T01:05:56;21.23;;;13.87;;
7503;SDS011;3793;48.136;11.536;2023-03-01T01:08:23;20.77;;;14.77;;
7503;SDS011;3793;48.136;11.536;2023-03-01T01:10:49;19.67;;;13.70;;
7503;SDS011;3793;48.136;11.536;2023-03-01T01:13:16;23.50;;;15.27;;
7503;SDS011;3793;48.136;11.536;2023-03-01T01:15:43;23.67;;;14.37;;
7503;SDS011;3793;48.136;11.536;2023-03-01T01:18:09;22.90;;;14.60;;
7503;SDS011;3793;48.136;11.536;2023-03-01T01:20:36;19.73;;;14.40;;
7503;SDS011;3793;48.136;11.536;2023-03-01T01:23:06;20.47;;;13.70;;
7503;SDS011;3793;48.136;11.536;2023-03-01T01:25:34;24.53;;;14.30;;
7503;SDS011;3793;48.136;11.536;2023-03-01T01:28:01;26.30;;;14.37;;
7503;SDS011;3793;48.136;11.536;2023-03-01T01:30:27;20.57;;;13.87;;
7503;SDS011;3793;48.136;11.536;2023-03-01T01:32:54;22.33;;;14.17;;
7503;SDS011;3793;48.136;11.536;2023-03-01T01:35:20;20.80;;;15.03;;
7503;SDS011;3793;48.136;11.536;2023-03-01T01:37:47;23.43;;;14.90;;
7503;SDS011;3793;48.136;11.536;2023-03-01T01:40:15;20.53;;;14.63;;
7503;SDS011;3793;48.136;11.536;2023-03-01T01:42:42;22.20;;;14.53;;
7503;SDS011;3793;48.136;11.536;2023-03-01T01:45:28;22.13;;;14.93;;
7503;SDS011;3793;48.136;11.536;2023-03-01T01:47:56;20.73;;;12.83;;
7503;SDS011;3793;48.136;11.536;2023-03-01T01:50:23;22.03;;;14.47;;
7503;SDS011;3793;48.136;11.536;2023-03-01T01:52:50;22.83;;;14.93;;
7503;SDS011;3793;48.136;11.536;2023-03-01T01:55:19;22.33;;;14.67;;
7503;SDS011;3793;48.136;11.536;2023-03-01T01:57:47;19.70;;;13.87;;
7503;SDS011;3793;48.136;11.536;2023-03-01T02:00:15;21.00;;;14.53;;
7503;SDS011;3793;48.136;11.536;2023-03-01T02:02:44;20.47;;;14.23;;
7503;SDS011;3793;48.136;11.536;2023-03-01T02:05:12;21.53;;;14.50;;
7503;SDS011;3793;48.136;11.536;2023-03-01T02:07:39;19.23;;;13.93;;
7503;SDS011;3793;48.136;11.536;2023-03-01T02:10:06;21.27;;;14.10;;
7503;SDS011;3793;48.136;11.536;2023-03-01T02:12:34;20.87;;;12.93;;
7503;SDS011;3793;48.136;11.536;2023-03-01T02:15:02;21.60;;;14.33;;
7503;SDS011;3793;48.136;11.536;2023-03-01T02:17:29;18.47;;;13.50;;
7503;SDS011;3793;48.136;11.536;2023-03-01T02:20:02;22.57;;;14.63;;
7503;SDS011;3793;48.136;11.536;2023-03-01T02:22:32;21.97;;;13.37;;
7503;SDS011;3793;48.136;11.536;2023-03-01T02:25:03;17.63;;;14.13;;
7503;SDS011;3793;48.136;11.536;2023-03-01T02:27:35;22.23;;;15.00;;
7503;SDS011;3793;48.136;11.536;2023-03-01T02:30:05;22.83;;;14.33;;
7503;SDS011;3793;48.136;11.536;2023-03-01T02:32:32;20.83;;;14.43;;
7503;SDS011;3793;48.136;11.536;2023-03-01T02:34:58;21.87;;;14.10;;
7503;SDS011;3793;48.136;11.536;2023-03-01T02:37:25;19.33;;;14.17;;
7503;SDS011;3793;48.136;11.536;2023-03-01T02:39:53;23.63;;;14.23;;
7503;SDS011;3793;48.136;11.536;2023-03-01T02:42:23;25.77;;;14.47;;
7503;SDS011;3793;48.136;11.536;2023-03-01T02:44:50;20.50;;;14.67;;
7503;SDS011;3793;48.136;11.536;2023-03-01T02:47:18;20.17;;;14.10;;
7503;SDS011;3793;48.136;11.536;2023-03-01T02:49:45;20.03;;;14.13;;
7503;SDS011;3793;48.136;11.536;2023-03-01T02:52:16;22.40;;;15.27;;
7503;SDS011;3793;48.136;11.536;2023-03-01T02:54:44;19.97;;;14.53;;
7503;SDS011;3793;48.136;11.536;2023-03-01T02:57:13;18.67;;;13.80;;
7503;SDS011;3793;48.136;11.536;2023-03-01T02:59:40;24.77;;;14.07;;
7503;SDS011;3793;48.136;11.536;2023-03-01T03:02:07;19.60;;;14.47;;
7503;SDS011;3793;48.136;11.536;2023-03-01T03:04:36;20.23;;;13.93;;
7503;SDS011;3793;48.136;11.536;2023-03-01T03:07:02;20.07;;;13.67;;
7503;SDS011;3793;48.136;11.536;2023-03-01T03:09:29;18.53;;;13.67;;
7503;SDS011;3793;48.136;11.536;2023-03-01T03:11:55;20.47;;;13.63;;
7503;SDS011;3793;48.136;11.536;2023-03-01T03:14:22;23.43;;;16.03;;
7503;SDS011;3793;48.136;11.536;2023-03-01T03:16:49;21.53;;;14.50;;
7503;SDS011;3793;48.136;11.536;2023-03-01T03:19:16;21.13;;;14.80;;
7503;SDS011;3793;48.136;11.536;2023-03-01T03:21:45;18.77;;;13.37;;
7503;SDS011;3793;48.136;11.536;2023-03-01T03:24:12;18.13;;;13.70;;
7503;SDS011;3793;48.136;11.536;2023-03-01T03:26:38;23.27;;;14.20;;
7503;SDS011;3793;48.136;11.536;2023-03-01T03:29:05;18.97;;;14.13;;
7503;SDS011;3793;48.136;11.536;2023-03-01T03:31:32;20.63;;;14.47;;
7503;SDS011;3793;48.136;11.536;2023-03-01T03:33:58;20.87;;;13.53;;
7503;SDS011;3793;48.136;11.536;2023-03-01T03:36:25;21.03;;;14.60;;
7503;SDS011;3793;48.136;11.536;2023-03-01T03:38:53;22.67;;;14.40;;
7503;SDS011;3793;48.136;11.536;2023-03-01T03:41:20;20.37;;;14.00;;
7503;SDS011;3793;48.136;11.536;2023-03-01T03:43:46;20.77;;;14.90;;
7503;SDS011;3793;48.136;11.536;2023-03-01T03:46:14;26.87;;;15.60;;
7503;SDS011;3793;48.136;11.536;2023-03-01T03:48:42;21.37;;;14.87;;
7503;SDS011;3793;48.136;11.536;2023-03-01T03:51:09;20.53;;;14.43;;
7503;SDS011;3793;48.136;11.536;2023-03-01T03:53:36;23.73;;;14.83;;
7503;SDS011;3793;48.136;11.536;2023-03-01T03:56:04;22.97;;;15.17;;
7503;SDS011;3793;48.136;11.536;2023-03-01T03:58:31;22.07;;;15.77;;
7503;SDS011;3793;48.136;11.536;2023-03-01T04:00:58;23.87;;;15.43;;
7503;SDS011;3793;48.136;11.536;2023-03-01T04:03:26;22.83;;;14.97;;
7503;SDS011;3793;48.136;11.536;2023-03-01T04:05:52;19.77;;;14.37;;
7503;SDS011;3793;48.136;11.536;2023-03-01T04:08:19;23.47;;;15.60;;
7503;SDS011;3793;48.136;11.536;2023-03-01T04:10:47;20.60;;;14.30;;
7503;SDS011;3793;48.136;11.536;2023-03-01T04:13:16;19.70;;;14.17;;
7503;SDS011;3793;48.136;11.536;2023-03-01T04:15:44;19.13;;;14.60;;
7503;SDS011;3793;48.136;11.536;2023-03-01T04:18:11;19.77;;;14.33;;
7503;SDS011;3793;48.136;11.536;2023-03-01T04:20:38;20.63;;;14.43;;
7503;SDS011;3793;48.136;11.536;2023-03-01T04:23:06;22.23;;;14.93;;
7503;SDS011;3793;48.136;11.536;2023-03-01T04:25:38;22.83;;;15.50;;
7503;SDS011;3793;48.136;11.536;2023-03-01T04:28:05;24.53;;;15.03;;
7503;SDS011;3793;48.136;11.536;2023-03-01T04:30:34;24.87;;;14.87;;
7503;SDS011;3793;48.136;11.536;2023-03-01T04:33:01;24.23;;;14.40;;
7503;SDS011;3793;48.136;11.536;2023-03-01T04:35:28;21.10;;;15.80;;
7503;SDS011;3793;48.136;11.536;2023-03-01T04:37:55;23.37;;;15.33;;
7503;SDS011;3793;48.136;11.536;2023-03-01T04:40:21;19.83;;;14.30;;
7503;SDS011;3793;48.136;11.536;2023-03-01T04:42:48;22.60;;;14.83;;
7503;SDS011;3793;48.136;11.536;2023-03-01T04:45:15;21.97;;;15.30;;
7503;SDS011;3793;48.136;11.536;2023-03-01T04:47:44;22.63;;;14.43;;
7503;SDS011;3793;48.136;11.536;2023-03-01T04:50:12;21.07;;;13.93;;
7503;SDS011;3793;48.136;11.536;2023-03-01T04:52:39;20.57;;;15.47;;
7503;SDS011;3793;48.136;11.536;2023-03-01T04:55:05;18.70;;;14.47;;
7503;SDS011;3793;48.136;11.536;2023-03-01T04:57:33;22.93;;;15.87;;
7503;SDS011;3793;48.136;11.536;2023-03-01T04:59:59;20.90;;;15.17;;
7503;SDS011;3793;48.136;11.536;2023-03-01T05:02:26;24.70;;;15.00;;
7503;SDS011;3793;48.136;11.536;2023-03-01T05:04:54;25.60;;;15.17;;
7503;SDS011;3793;48.136;11.536;2023-03-01T05:07:22;21.40;;;14.30;;
7503;SDS011;3793;48.136;11.536;2023-03-01T05:09:49;21.07;;;14.57;;
7503;SDS011;3793;48.136;11.536;2023-03-01T05:12:16;19.67;;;14.10;;
7503;SDS011;3793;48.136;11.536;2023-03-01T05:14:43;22.27;;;15.00;;
7503;SDS011;3793;48.136;11.536;2023-03-01T05:17:09;23.97;;;15.40;;
7503;SDS011;3793;48.136;11.536;2023-03-01T05:19:36;24.53;;;15.77;;
7503;SDS011;3793;48.136;11.536;2023-03-01T05:22:04;18.97;;;14.37;;
7503;SDS011;3793;48.136;11.536;2023-03-01T05:24:31;23.00;;;13.80;;
7503;SDS011;3793;48.136;11.536;2023-03-01T05:26:58;23.13;;;16.03;;
7503;SDS011;3793;48.136;11.536;2023-03-01T05:29:25;22.27;;;15.30;;
7503;SDS011;3793;48.136;11.536;2023-03-01T05:31:52;22.17;;;15.67;;
7503;SDS011;3793;48.136;11.536;2023-03-01T05:34:22;24.83;;;15.60;;
7503;SDS011;3793;48.136;11.536;2023-03-01T05:36:50;19.87;;;14.73;;
7503;SDS011;3793;48.136;11.536;2023-03-01T05:39:20;23.27;;;14.87;;
7503;SDS011;3793;48.136;11.536;2023-03-01T05:41:47;23.07;;;14.93;;
7503;SDS011;3793;48.136;11.536;2023-03-01T05:44:14;20.77;;;14.40;;
7503;SDS011;3793;48.136;11.536;2023-03-01T05:46:41;22.37;;;15.47;;
7503;SDS011;3793;48.136;11.536;2023-03-01T05:49:07;22.73;;;16.20;;
7503;SDS011;3793;48.136;11.536;2023-03-01T05:51:34;21.10;;;14.60;;
7503;SDS011;3793;48.136;11.536;2023-03-01T05:54:00;23.40;;;15.00;;
7503;SDS011;3793;48.136;11.536;2023-03-01T05:56:31;21.73;;;15.17;;
7503;SDS011;3793;48.136;11.536;2023-03-01T05:58:58;21.83;;;15.37;;
7503;SDS011;3793;48.136;11.536;2023-03-01T06:01:24;22.43;;;15.37;;
7503;SDS011;3793;48.136;11.536;2023-03-01T06:03:51;20.70;;;15.20;;
7503;SDS011;3793;48.136;11.536;2023-03-01T06:06:18;23.63;;;14.30;;
7503;SDS011;3793;48.136;11.536;2023-03-01T06:08:44;22.13;;;15.67;;
7503;SDS011;3793;48.136;11.536;2023-03-01T06:11:11;20.53;;;14.13;;
7503;SDS011;3793;48.136;11.536;2023-03-01T06:13:40;25.60;;;15.07;;
7503;SDS011;3793;48.136;11.536;2023-03-01T06:16:07;23.53;;;16.20;;
7503;SDS011;3793;48.136;11.536;2023-03-01T06:18:34;23.73;;;16.10;;
7503;SDS011;3793;48.136;11.536;2023-03-01T06:21:01;23.33;;;14.87;;
7503;SDS011;3793;48.136;11.536;2023-03-01T06:23:27;24.00;;;16.47;;
7503;SDS011;3793;48.136;11.536;2023-03-01T06:25:54;23.43;;;15.13;;
7503;SDS011;3793;48.136;11.536;2023-03-01T06:28:20;20.73;;;14.50;;
7503;SDS011;3793;48.136;11.536;2023-03-01T06:30:49;22.27;;;16.10;;
7503;SDS011;3793;48.136;11.536;2023-03-01T06:33:16;27.63;;;15.77;;
7503;SDS011;3793;48.136;11.536;2023-03-01T06:35:45;24.33;;;15.90;;
7503;SDS011;3793;48.136;11.536;2023-03-01T06:38:11;27.67;;;15.20;;
7503;SDS011;3793;48.136;11.536;2023-03-01T06:40:40;25.47;;;15.63;;
7503;SDS011;3793;48.136;11.536;2023-03-01T06:43:06;24.57;;;15.33;;
7503;SDS011;3793;48.136;11.536;2023-03-01T06:45:33;24.23;;;16.17;;
7503;SDS011;3793;48.136;11.536;2023-03-01T06:48:05;25.77;;;15.77;;
7503;SDS011;3793;48.136;11.536;2023-03-01T06:50:32;25.93;;;15.43;;
7503;SDS011;3793;48.136;11.536;2023-03-01T06:52:58;24.20;;;15.13;;
7503;SDS011;3793;48.136;11.536;2023-03-01T06:55:25;26.70;;;15.67;;
7503;SDS011;3793;48.136;11.536;2023-03-01T06:57:53;26.37;;;16.63;;
7503;SDS011;3793;48.136;11.536;2023-03-01T07:00:20;21.70;;;15.00;;
7503;SDS011;3793;48.136;11.536;2023-03-01T07:02:47;24.77;;;15.97;;
7503;SDS011;3793;48.136;11.536;2023-03-01T07:05:15;25.00;;;15.03;;
7503;SDS011;3793;48.136;11.536;2023-03-01T07:07:41;23.77;;;15.00;;
7503;SDS011;3793;48.136;11.536;2023-03-01T07:10:09;28.03;;;15.67;;
7503;SDS011;3793;48.136;11.536;2023-03-01T07:12:36;26.67;;;16.13;;
7503;SDS011;3793;48.136;11.536;2023-03-01T07:15:03;27.33;;;16.20;;
7503;SDS011;3793;48.136;11.536;2023-03-01T07:17:30;23.80;;;15.50;;
7503;SDS011;3793;48.136;11.536;2023-03-01T07:19:56;22.87;;;15.27;;
7503;SDS011;3793;48.136;11.536;2023-03-01T07:22:24;24.83;;;16.53;;
7503;SDS011;3793;48.136;11.536;2023-03-01T07:24:51;23.47;;;15.03;;
7503;SDS011;3793;48.136;11.536;2023-03-01T07:27:17;24.03;;;15.53;;
7503;SDS011;3793;48.136;11.536;2023-03-01T07:29:44;22.63;;;15.70;;
7503;SDS011;3793;48.136;11.536;2023-03-01T07:32:11;24.83;;;15.87;;
7503;SDS011;3793;48.136;11.536;2023-03-01T07:34:37;22.67;;;15.53;;
7503;SDS011;3793;48.136;11.536;2023-03-01T07:37:04;26.30;;;15.27;;
7503;SDS011;3793;48.136;11.536;2023-03-01T07:39:33;24.00;;;14.83;;
7503;SDS011;3793;48.136;11.536;2023-03-01T07:42:02;29.30;;;16.63;;
7503;SDS011;3793;48.136;11.536;2023-03-01T07:44:29;24.10;;;16.10;;
7503;SDS011;3793;48.136;11.536;2023-03-01T07:46:55;24.03;;;15.60;;
7503;SDS011;3793;48.136;11.536;2023-03-01T07:49:23;30.83;;;17.33;;
7503;SDS011;3793;48.136;11.536;2023-03-01T07:51:51;27.13;;;15.63;;
7503;SDS011;3793;48.136;11.536;2023-03-01T07:54:18;22.77;;;16.00;;
7503;SDS011;3793;48.136;11.536;2023-03-01T07:56:46;24.53;;;16.40;;
7503;SDS011;3793;48.136;11.536;2023-03-01T07:59:13;23.30;;;16.13;;
7503;SDS011;3793;48.136;11.536;2023-03-01T08:01:39;24.20;;;14.87;;
7503;SDS011;3793;48.136;11.536;2023-03-01T08:04:07;23.60;;;15.20;;
7503;SDS011;3793;48.136;11.536;2023-03-01T08:06:34;24.60;;;15.63;;
7503;SDS011;3793;48.136;11.536;2023-03-01T08:09:01;25.57;;;15.60;;
7503;SDS011;3793;48.136;11.536;2023-03-01T08:11:28;23.37;;;15.23;;
7503;SDS011;3793;48.136;11.536;2023-03-01T08:13:56;25.23;;;17.20;;
7503;SDS011;3793;48.136;11.536;2023-03-01T08:16:23;24.97;;;15.77;;
7503;SDS011;3793;48.136;11.536;2023-03-01T08:18:50;26.73;;;16.60;;
7503;SDS011;3793;48.136;11.536;2023-03-01T08:21:17;24.10;;;16.30;;
7503;SDS011;3793;48.136;11.536;2023-03-01T08:23:44;25.93;;;16.30;;
7503;SDS011;3793;48.136;11.536;2023-03-01T08:26:12;25.07;;;16.43;;
7503;SDS011;3793;48.136;11.536;2023-03-01T08:28:39;30.40;;;16.23;;
7503;SDS011;3793;48.136;11.536;2023-03-01T08:31:15;29.13;;;16.63;;
7503;SDS011;3793;48.136;11.536;2023-03-01T08:33:42;26.47;;;16.10;;
7503;SDS011;3793;48.136;11.536;2023-03-01T08:36:09;23.43;;;16.10;;
7503;SDS011;3793;48.136;11.536;2023-03-01T08:38:35;24.47;;;16.13;;
7503;SDS011;3793;48.136;11.536;2023-03-01T08:41:06;26.13;;;17.40;;
7503;SDS011;3793;48.136;11.536;2023-03-01T08:43:36;23.97;;;17.07;;
7503;SDS011;3793;48.136;11.536;2023-03-01T08:46:03;28.90;;;17.03;;
7503;SDS011;3793;48.136;11.536;2023-03-01T08:48:31;25.87;;;16.07;;
7503;SDS011;3793;48.136;11.536;2023-03-01T08:51:06;24.77;;;16.60;;
7503;SDS011;3793;48.136;11.536;2023-03-01T08:53:34;23.00;;;16.03;;
7503;SDS011;3793;48.136;11.536;2023-03-01T08:56:01;26.97;;;16.57;;
7503;SDS011;3793;48.136;11.536;2023-03-01T08:58:28;24.07;;;16.30;;
7503;SDS011;3793;48.136;11.536;2023-03-01T09:00:55;24.77;;;16.33;;
7503;SDS011;3793;48.136;11.536;2023-03-01T09:03:21;28.87;;;16.07;;
7503;SDS011;3793;48.136;11.536;2023-03-01T09:05:50;26.97;;;16.87;;
7503;SDS011;3793;48.136;11.536;2023-03-01T09:08:17;23.60;;;16.30;;
7503;SDS011;3793;48.136;11.536;2023-03-01T09:10:43;27.47;;;16.43;;
7503;SDS011;3793;48.136;11.536;2023-03-01T09:13:10;30.90;;;16.60;;
7503;SDS011;3793;48.136;11.536;2023-03-01T09:15:37;25.57;;;16.57;;
7503;SDS011;3793;48.136;11.536;2023-03-01T09:18:03;28.57;;;16.33;;
7503;SDS011;3793;48.136;11.536;2023-03-01T09:20:30;26.10;;;17.00;;
7503;SDS011;3793;48.136;11.536;2023-03-01T09:22:58;28.37;;;17.90;;
7503;SDS011;3793;48.136;11.536;2023-03-01T09:25:25;29.90;;;17.37;;
7503;SDS011;3793;48.136;11.536;2023-03-01T09:27:52;25.57;;;17.40;;
7503;SDS011;3793;48.136;11.536;2023-03-01T09:30:19;28.60;;;17.53;;
7503;SDS011;3793;48.136;11.536;2023-03-01T09:32:45;20.30;;;14.80;;
7503;SDS011;3793;48.136;11.536;2023-03-01T09:35:12;29.77;;;16.83;;
7503;SDS011;3793;48.136;11.536;2023-03-01T09:37:38;24.23;;;16.33;;
7503;SDS011;3793;48.136;11.536;2023-03-01T09:40:11;24.70;;;16.07;;
7503;SDS011;3793;48.136;11.536;2023-03-01T09:42:45;26.13;;;17.07;;
7503;SDS011;3793;48.136;11.536;2023-03-01T09:45:15;22.40;;;16.20;;
7503;SDS011;3793;48.136;11.536;2023-03-01T09:47:46;28.30;;;17.67;;
7503;SDS011;3793;48.136;11.536;2023-03-01T09:50:16;32.70;;;17.93;;
7503;SDS011;3793;48.136;11.536;2023-03-01T09:52:45;35.10;;;17.60;;
7503;SDS011;3793;48.136;11.536;2023-03-01T09:55:15;26.60;;;16.83;;
7503;SDS011;3793;48.136;11.536;2023-03-01T09:57:46;24.30;;;16.63;;
7503;SDS011;3793;48.136;11.536;2023-03-01T10:00:22;27.10;;;16.70;;
7503;SDS011;3793;48.136;11.536;2023-03-01T10:02:52;22.73;;;16.07;;
7503;SDS011;3793;48.136;11.536;2023-03-01T10:05:31;28.70;;;16.70;;
7503;SDS011;3793;48.136;11.536;2023-03-01T10:08:02;23.97;;;16.03;;
7503;SDS011;3793;48.136;11.536;2023-03-01T10:10:33;31.40;;;16.73;;
7503;SDS011;3793;48.136;11.536;2023-03-01T10:13:01;23.87;;;16.53;;
7503;SDS011;3793;48.136;11.536;2023-03-01T10:15:33;30.27;;;17.80;;
7503;SDS011;3793;48.136;11.536;2023-03-01T10:18:01;27.63;;;16.80;;
7503;SDS011;3793;48.136;11.536;2023-03-01T10:20:33;29.87;;;16.70;;
7503;SDS011;3793;48.136;11.536;2023-03-01T10:23:03;28.93;;;17.97;;
7503;SDS011;3793;48.136;11.536;2023-03-01T10:25:36;23.67;;;16.03;;
7503;SDS011;3793;48.136;11.536;2023-03-01T10:28:05;23.60;;;15.20;;
7503;SDS011;3793;48.136;11.536;2023-03-01T10:30:34;28.47;;;17.07;;
7503;SDS011;3793;48.136;11.536;2023-03-01T10:33:03;28.27;;;16.87;;
7503;SDS011;3793;48.136;11.536;2023-03-01T10:35:32;23.20;;;15.87;;
7503;SDS011;3793;48.136;11.536;2023-03-01T10:38:02;26.13;;;17.93;;
7503;SDS011;3793;48.136;11.536;2023-03-01T10:40:30;28.83;;;16.87;;
7503;SDS011;3793;48.136;11.536;2023-03-01T10:42:59;24.97;;;17.30;;
7503;SDS011;3793;48.136;11.536;2023-03-01T10:45:30;30.27;;;16.73;;
7503;SDS011;3793;48.136;11.536;2023-03-01T10:48:03;25.23;;;17.33;;
7503;SDS011;3793;48.136;11.536;2023-03-01T10:50:30;26.40;;;17.10;;
7503;SDS011;3793;48.136;11.536;2023-03-01T10:52:58;26.30;;;16.67;;
7503;SDS011;3793;48.136;11.536;2023-03-01T10:55:26;30.13;;;17.37;;
7503;SDS011;3793;48.136;11.536;2023-03-01T10:58:08;27.97;;;16.50;;
7503;SDS011;3793;48.136;11.536;2023-03-01T11:00:45;24.37;;;16.87;;
7503;SDS011;3793;48.136;11.536;2023-03-01T11:03:13;26.93;;;17.67;;
7503;SDS011;3793;48.136;11.536;2023-03-01T11:05:57;25.40;;;16.90;;
7503;SDS011;3793;48.136;11.536;2023-03-01T11:08:31;23.80;;;17.00;;
7503;SDS011;3793;48.136;11.536;2023-03-01T11:11:09;24.40;;;16.87;;
7503;SDS011;3793;48.136;11.536;2023-03-01T11:13:46;26.80;;;17.47;;
7503;SDS011;3793;48.136;11.536;2023-03-01T11:16:14;24.10;;;17.27;;
7503;SDS011;3793;48.136;11.536;2023-03-01T11:18:40;23.60;;;17.27;;
7503;SDS011;3793;48.136;11.536;2023-03-01T11:21:07;26.03;;;17.63;;
7503;SDS011;3793;48.136;11.536;2023-03-01T11:23:33;30.13;;;17.60;;
7503;SDS011;3793;48.136;11.536;2023-03-01T11:26:04;24.93;;;17.63;;
7503;SDS011;3793;48.136;11.536;2023-03-01T11:28:32;26.30;;;17.53;;
7503;SDS011;3793;48.136;11.536;2023-03-01T11:31:00;28.27;;;18.17;;
7503;SDS011;3793;48.136;11.536;2023-03-01T11:33:33;27.30;;;18.60;;
7503;SDS011;3793;48.136;11.536;2023-03-01T11:36:01;27.00;;;18.63;;
7503;SDS011;3793;48.136;11.536;2023-03-01T11:38:30;28.53;;;18.20;;
7503;SDS011;3793;48.136;11.536;2023-03-01T11:41:00;24.23;;;17.10;;
7503;SDS011;3793;48.136;11.536;2023-03-01T11:43:31;24.63;;;17.80;;
7503;SDS011;3793;48.136;11.536;2023-03-01T11:46:12;26.80;;;17.80;;
7503;SDS011;3793;48.136;11.536;2023-03-01T11:48:50;23.47;;;16.97;;
7503;SDS011;3793;48.136;11.536;2023-03-01T11:51:21;22.93;;;16.30;;
7503;SDS011;3793;48.136;11.536;2023-03-01T11:53:56;29.50;;;17.40;;
7503;SDS011;3793;48.136;11.536;2023-03-01T11:56:29;24.07;;;18.13;;
7503;SDS011;3793;48.136;11.536;2023-03-01T11:59:09;22.73;;;17.37;;
7503;SDS011;3793;48.136;11.536;2023-03-01T12:01:42;27.90;;;17.13;;
7503;SDS011;3793;48.136;11.536;2023-03-01T12:06:55;25.87;;;17.17;;
7503;SDS011;3793;48.136;11.536;2023-03-01T12:09:41;23.73;;;17.33;;
7503;SDS011;3793;48.136;11.536;2023-03-01T12:15:26;26.53;;;17.43;;
7503;SDS011;3793;48.136;11.536;2023-03-01T12:21:20;22.77;;;17.27;;
7503;SDS011;3793;48.136;11.536;2023-03-01T12:24:01;24.13;;;17.57;;
7503;SDS011;3793;48.136;11.536;2023-03-01T12:26:33;24.17;;;16.87;;
7503;SDS011;3793;48.136;11.536;2023-03-01T12:34:43;27.20;;;16.97;;
7503;SDS011;3793;48.136;11.536;2023-03-01T12:37:22;25.53;;;16.50;;
7503;SDS011;3793;48.136;11.536;2023-03-01T12:39:56;22.93;;;16.87;;
7503;SDS011;3793;48.136;11.536;2023-03-01T12:42:31;23.07;;;17.63;;
7503;SDS011;3793;48.136;11.536;2023-03-01T12:45:24;32.03;;;17.33;;
7503;SDS011;3793;48.136;11.536;2023-03-01T12:47:55;41.53;;;19.70;;
7503;SDS011;3793;48.136;11.536;2023-03-01T12:50:26;30.93;;;17.30;;
7503;SDS011;3793;48.136;11.536;2023-03-01T12:52:56;26.37;;;17.37;;
7503;SDS011;3793;48.136;11.536;2023-03-01T12:55:25;25.10;;;17.63;;
7503;SDS011;3793;48.136;11.536;2023-03-01T12:57:54;27.60;;;18.63;;
7503;SDS011;3793;48.136;11.536;2023-03-01T13:00:26;26.03;;;17.63;;
7503;SDS011;3793;48.136;11.536;2023-03-01T13:02:55;24.10;;;16.80;;
7503;SDS011;3793;48.136;11.536;2023-03-01T13:05:25;23.67;;;17.43;;
7503;SDS011;3793;48.136;11.536;2023-03-01T13:07:58;23.93;;;17.77;;
7503;SDS011;3793;48.136;11.536;2023-03-01T13:10:26;25.57;;;17.83;;
7503;SDS011;3793;48.136;11.536;2023-03-01T13:13:11;30.13;;;17.87;;
7503;SDS011;3793;48.136;11.536;2023-03-01T13:15:39;24.73;;;17.40;;
7503;SDS011;3793;48.136;11.536;2023-03-01T13:20:48;25.40;;;17.33;;
7503;SDS011;3793;48.136;11.536;2023-03-01T13:23:25;32.53;;;18.53;;
7503;SDS011;3793;48.136;11.536;2023-03-01T13:26:03;26.93;;;18.77;;
7503;SDS011;3793;48.136;11.536;2023-03-01T13:28:37;23.70;;;17.73;;
7503;SDS011;3793;48.136;11.536;2023-03-01T13:31:05;28.60;;;17.70;;
7503;SDS011;3793;48.136;11.536;2023-03-01T13:33:37;23.67;;;16.90;;
7503;SDS011;3793;48.136;11.536;2023-03-01T13:36:05;24.60;;;16.87;;
7503;SDS011;3793;48.136;11.536;2023-03-01T13:38:39;27.90;;;17.70;;
7503;SDS011;3793;48.136;11.536;2023-03-01T13:41:06;23.10;;;17.97;;
7503;SDS011;3793;48.136;11.536;2023-03-01T13:43:34;24.27;;;18.00;;
7503;SDS011;3793;48.136;11.536;2023-03-01T13:46:01;25.40;;;18.47;;
7503;SDS011;3793;48.136;11.536;2023-03-01T13:48:29;24.83;;;17.77;;
7503;SDS011;3793;48.136;11.536;2023-03-01T13:50:58;27.57;;;17.80;;
7503;SDS011;3793;48.136;11.536;2023-03-01T13:53:26;25.57;;;18.07;;
7503;SDS011;3793;48.136;11.536;2023-03-01T13:55:57;30.23;;;17.83;;
7503;SDS011;3793;48.136;11.536;2023-03-01T13:58:25;23.73;;;17.37;;
7503;SDS011;3793;48.136;11.536;2023-03-01T14:00:56;26.63;;;18.00;;
7503;SDS011;3793;48.136;11.536;2023-03-01T14:03:22;24.90;;;18.50;;
7503;SDS011;3793;48.136;11.536;2023-03-01T14:05:59;23.17;;;16.10;;
7503;SDS011;3793;48.136;11.536;2023-03-01T14:08:27;26.20;;;18.80;;
7503;SDS011;3793;48.136;11.536;2023-03-01T14:11:08;26.10;;;18.63;;
7503;SDS011;3793;48.136;11.536;2023-03-01T14:13:46;24.00;;;17.30;;
7503;SDS011;3793;48.136;11.536;2023-03-01T14:16:18;24.80;;;18.10;;
7503;SDS011;3793;48.136;11.536;2023-03-01T14:18:47;28.10;;;17.27;;
7503;SDS011;3793;48.136;11.536;2023-03-01T14:21:18;26.87;;;19.17;;
7503;SDS011;3793;48.136;11.536;2023-03-01T14:23:45;24.60;;;17.47;;
7503;SDS011;3793;48.136;11.536;2023-03-01T14:26:14;26.57;;;17.93;;
7503;SDS011;3793;48.136;11.536;2023-03-01T14:28:46;24.50;;;17.30;;
7503;SDS011;3793;48.136;11.536;2023-03-01T14:31:34;25.47;;;16.83;;
7503;SDS011;3793;48.136;11.536;2023-03-01T14:34:16;26.10;;;18.73;;
7503;SDS011;3793;48.136;11.536;2023-03-01T14:36:44;26.23;;;17.77;;
7503;SDS011;3793;48.136;11.536;2023-03-01T14:39:19;23.67;;;16.80;;
7503;SDS011;3793;48.136;11.536;2023-03-01T14:41:49;21.47;;;16.73;;
7503;SDS011;3793;48.136;11.536;2023-03-01T14:44:17;21.60;;;16.17;;
7503;SDS011;3793;48.136;11.536;2023-03-01T14:46:51;25.10;;;16.67;;
7503;SDS011;3793;48.136;11.536;2023-03-01T14:49:19;27.53;;;16.93;;
7503;SDS011;3793;48.136;11.536;2023-03-01T14:51:56;21.70;;;15.87;;
7503;SDS011;3793;48.136;11.536;2023-03-01T14:54:29;22.40;;;16.10;;
7503;SDS011;3793;48.136;11.536;2023-03-01T14:57:12;21.53;;;16.67;;
7503;SDS011;3793;48.136;11.536;2023-03-01T14:59:44;20.53;;;15.47;;
7503;SDS011;3793;48.136;11.536;2023-03-01T15:02:16;24.43;;;16.47;;